Airfield :
LOGIN :

Register | Disclaimer

   EN    FR    IT 

 










Legend :    VFR   Marginal VFR   IFR   Intensive IFR   Very Intensive IFR
Visi :
Ceiling :
>= 8 km
>= 3000ft
5 to 8 km
1000 to 3000 ft
1500m to 5 km
500 to 1000 ft
800 to 1500m
200 to 500 ft
< 800m
< 200 ft
Symbols :   Thunderstorms  Fog  Heavy snow  Heavy precipitations  Wind > 20 kt
SIGMETs :     Misc.  Thunderstorms  Icing  Turbulence  Mountain Waves  Volcanic Ashes






- Airport Elevation : 408 ft
- IATA code : FKB


EDSB - Karlsruhe Baden Baden

CURRENT METAR :
  • 121420Z 15019G29KT 110V180 9999 VCTS FEW030CB 27/15 Q1015

EXPIRED METARs :
  • 121350Z 26006KT 9999 VCTS FEW035CB 34/17 Q1013
  • 121320Z 26005KT 230V300 CAVOK 34/18 Q1013
  • 121250Z 32004KT 270V010 CAVOK 35/18 Q1013
  • 121220Z 31004KT 280V360 CAVOK 34/19 Q1013
  • 121150Z 33005KT 280V020 CAVOK 34/18 Q1013

TAF TAF EDSB
Valid from the 12 at 12:00 until the 13 at 12:00 UTC


121100Z 1212/1312 34005KT CAVOK
PROB40
TEMPO 1212/1219 23015G35KT TSRA BKN060CB
BECMG 1216/1218 VRB03KT
BECMG 1306/1309 20007KT
TEMPO 1309/1312 SHRA BKN050CB
PROB30
TEMPO 1309/1312 24015G25KT 4000 TSRA



MET'MAP, your aeronautical weather chart ! - Copyright ORBIFLY December 2007 - Disclaimer

ORBIFLY MET'MAP TEAM :

Programming & Development : Alexandra Zaïnal
Concept & original design : Baudouin d'Aumeries
Assistance for programming : Marc-Olivier Méhu
Technical & hardware support : Manuel Goepfert

Contact : metmap@orbifly.com




SOURCES & CREDITS :

   NOAA